Ana Sayfa
METAR-TAF:

METAR-TAF

Havaalanları :

Elkhart-Morton County Airport

Elkhart, Kansas, Amerika Birleşik Devletleri

Enlem: 37-00N, Boylam: 101-54W, yükseklik: 1099 m

Güncel hava durumu gözlemi

Rapor saat 19:55 UTC de 26 dakika önce yapıldı.
Rüzgar doğu/güneydoğudan 4 kt
Sıcaklık 8°C
Nem 31%
Basınç 1028 hPa
Görüş mesafesi: 16.1 km
Açık gökyüzü

METAR: KEHA 181955Z AUTO 12004KT 10SM CLR 08/M08 A3037 RMK AO2 T00781081

Saat: 14:21 (20:21 UTC)


TAF: eksik

4.000'den fazla havaalanı için hava durumu gözlemleri ve tahminleri (METAR ve TAF raporları).

Kullanılabilir istasyonlar harita üzerinde sarı ve kırmızı noktalarla gösterilir.

İstasyonun adını görmek için fareyi noktanın üzerinde gezdirin.

Sonrasında hava gözlem ve tahminlerini görmek için tıklayın.

Haritayı değiştirmek için: yaklaştırmak için siyah artı işaretli yeşil düğmeye ve uzaklaştırmak için de eksi işaretli düğmeye hızla tıklayın; bitişik haritalar için yeşil okları kullanın.


METAR-TAF: